Terminal Aerodrome Forecast
Issued by NWS Billings, MT

Home | Current Version | Previous Version | Graphics & Text | Print | Product List | Glossary On
Versions: 1 2 3 4 5 6 7 8 9 10 11 12 13 14 15 16 17 18
000
FTUS45 KBYZ 291120
TAFMLS
TAF
KMLS 291120Z 2912/3012 16010KT P6SM VCSH BKN120
     FM291600 28013G22KT P6SM VCSH SCT080 BKN100
     FM291900 29015G24KT P6SM SCT100
     FM300300 30010KT P6SM FEW100
     FM301000 35005KT P6SM SCT025=

USA.gov is the U.S. government's official web portal to all federal, state and local government web resources and services.